createdAt,value
2023-10-09T00:00:30.059Z,43.6
2023-10-09T00:01:46.319Z,46
2023-10-09T00:03:02.654Z,48
2023-10-09T00:04:18.904Z,43
2023-10-09T00:05:35.233Z,43.8
2023-10-09T00:06:51.487Z,41.8
2023-10-09T00:08:07.837Z,49.1
2023-10-09T00:09:24.112Z,42.7
2023-10-09T00:10:40.412Z,45.1
2023-10-09T00:11:55.682Z,41.8
2023-10-09T00:13:12.006Z,41.8
2023-10-09T00:14:28.317Z,48
2023-10-09T00:15:44.611Z,44.1
2023-10-09T00:17:00.889Z,53.8
2023-10-09T00:18:17.188Z,42.2
2023-10-09T00:19:33.444Z,41.5
2023-10-09T00:20:49.782Z,41.8
2023-10-09T00:22:06.079Z,42.2
2023-10-09T00:23:22.359Z,42.2
2023-10-09T00:24:38.664Z,41.8
2023-10-09T00:25:54.952Z,41.8
2023-10-09T00:27:11.234Z,46.8
2023-10-09T00:28:26.554Z,46.7
2023-10-09T00:29:42.808Z,41.8
2023-10-09T00:30:59.129Z,42.8
2023-10-09T00:32:15.435Z,43
2023-10-09T00:33:31.731Z,42
2023-10-09T00:34:48.011Z,42.2
2023-10-09T00:36:04.304Z,51.2
2023-10-09T00:37:20.614Z,42
2023-10-09T00:38:36.903Z,43.8
2023-10-09T00:39:53.188Z,47.8
2023-10-09T00:41:09.474Z,44.1
2023-10-09T00:42:25.770Z,42
2023-10-09T00:43:42.064Z,44.1
2023-10-09T00:44:57.334Z,42
2023-10-09T00:46:13.671Z,42.7
2023-10-09T00:47:29.978Z,42.2
2023-10-09T00:48:46.258Z,42.3
2023-10-09T00:50:02.518Z,42.3
2023-10-09T00:51:18.837Z,43.8
2023-10-09T00:52:35.103Z,43.9
2023-10-09T00:53:51.438Z,41.8
2023-10-09T00:55:07.684Z,46
2023-10-09T00:56:24.017Z,49.3
2023-10-09T00:57:40.319Z,43.6
2023-10-09T00:58:56.612Z,42.2
2023-10-09T01:00:12.895Z,42.5
2023-10-09T01:01:28.200Z,42.2
2023-10-09T01:02:44.497Z,41.8
2023-10-09T01:04:00.805Z,41.5
2023-10-09T01:05:17.089Z,41.8
2023-10-09T01:06:33.372Z,45.1
2023-10-09T01:07:49.684Z,46.7
2023-10-09T01:09:05.968Z,53.6
2023-10-09T01:10:22.257Z,42.5
2023-10-09T01:11:38.561Z,42.2
2023-10-09T01:12:54.805Z,41.5
2023-10-09T01:14:11.133Z,41.4
2023-10-09T01:15:27.426Z,41
2023-10-09T01:16:43.734Z,42.2
2023-10-09T01:17:59.049Z,43
2023-10-09T01:19:15.341Z,46.8
2023-10-09T01:20:31.588Z,47
2023-10-09T01:21:47.918Z,54.1
2023-10-09T01:23:04.169Z,42.2
2023-10-09T01:24:20.499Z,43.1
2023-10-09T01:25:36.804Z,42
2023-10-09T01:26:53.101Z,44.6
2023-10-09T01:28:09.348Z,41.4
2023-10-09T01:29:25.680Z,41.8
2023-10-09T01:30:41.967Z,41.5
2023-10-09T01:31:58.269Z,41.5
2023-10-09T01:33:14.558Z,47
2023-10-09T01:34:29.865Z,46.2
2023-10-09T01:35:46.118Z,41.7
2023-10-09T01:37:02.452Z,44.6
2023-10-09T01:38:18.703Z,42
2023-10-09T01:39:35.031Z,41.2
2023-10-09T01:40:51.289Z,41.4
2023-10-09T01:42:07.636Z,43
2023-10-09T01:43:23.917Z,41.5
2023-10-09T01:44:40.208Z,42.7
2023-10-09T01:45:56.516Z,45.6
2023-10-09T01:47:12.795Z,46.7
2023-10-09T01:48:29.089Z,46.4
2023-10-09T01:49:45.392Z,41.5
2023-10-09T01:51:00.706Z,42.8
2023-10-09T01:52:16.991Z,43
2023-10-09T01:53:33.279Z,42
2023-10-09T01:54:49.586Z,41.7
2023-10-09T01:56:05.860Z,41.7
2023-10-09T01:57:22.165Z,43.3
2023-10-09T01:58:38.465Z,44.6
2023-10-09T01:59:54.758Z,52
2023-10-09T02:01:11.033Z,42
2023-10-09T02:02:27.326Z,41.8
2023-10-09T02:03:43.630Z,46.2
2023-10-09T02:04:59.925Z,41.7
2023-10-09T02:06:16.209Z,41.8
2023-10-09T02:07:32.505Z,41.2
2023-10-09T02:08:47.777Z,46.5
2023-10-09T02:10:04.119Z,43.6
2023-10-09T02:11:20.396Z,53
2023-10-09T02:12:36.703Z,50.1
2023-10-09T02:13:52.982Z,42
2023-10-09T02:15:09.289Z,42
2023-10-09T02:16:25.696Z,42
2023-10-09T02:17:41.994Z,42.3
2023-10-09T02:18:58.249Z,42.8
2023-10-09T02:20:14.580Z,50.7
2023-10-09T02:21:30.876Z,46.7
2023-10-09T02:22:47.165Z,47.8
2023-10-09T02:24:03.468Z,46.7
2023-10-09T02:25:19.755Z,46.2
2023-10-09T02:26:36.048Z,47.3
2023-10-09T02:27:52.343Z,43.5
2023-10-09T02:29:08.640Z,42.2
2023-10-09T02:30:24.934Z,43.3
2023-10-09T02:31:41.186Z,42
2023-10-09T02:32:56.540Z,45.2
2023-10-09T02:34:12.823Z,45.9
2023-10-09T02:35:29.131Z,47.2
2023-10-09T02:36:45.369Z,42
2023-10-09T02:38:01.710Z,46
2023-10-09T02:39:17.951Z,42.7
2023-10-09T02:40:34.284Z,47.2
2023-10-09T02:41:50.581Z,43.8
2023-10-09T02:43:06.879Z,43.5
2023-10-09T02:44:23.171Z,44.3
2023-10-09T02:45:39.466Z,43.3
2023-10-09T02:46:55.769Z,44.9
2023-10-09T02:48:12.043Z,47.5
2023-10-09T02:49:27.365Z,52.2
2023-10-09T02:50:43.660Z,57.2
2023-10-09T02:51:59.958Z,44.4
2023-10-09T02:53:16.251Z,43.9
2023-10-09T02:54:32.545Z,44.1
2023-10-09T02:55:48.825Z,43
2023-10-09T02:57:05.124Z,44.3
2023-10-09T02:58:21.414Z,47.3
2023-10-09T02:59:37.666Z,45.2
2023-10-09T03:00:53.959Z,53.8
2023-10-09T03:02:10.247Z,43.5
2023-10-09T03:03:26.597Z,44.6
2023-10-09T03:04:42.878Z,46.2
2023-10-09T03:05:58.189Z,46.2
2023-10-09T03:07:14.488Z,44.4
2023-10-09T03:08:30.772Z,44.7
2023-10-09T03:09:47.062Z,43.8
2023-10-09T03:11:03.369Z,46.2
2023-10-09T03:12:19.618Z,48.3
2023-10-09T03:13:35.949Z,46.2
2023-10-09T03:14:52.245Z,45.7
2023-10-09T03:16:08.532Z,48.9
2023-10-09T03:17:24.821Z,44.4
2023-10-09T03:18:41.124Z,46.4
2023-10-09T03:19:57.367Z,45.4
2023-10-09T03:21:13.716Z,57.5
2023-10-09T03:22:29.009Z,51.2
2023-10-09T03:23:45.322Z,54.3
2023-10-09T03:25:01.611Z,45.1
2023-10-09T03:26:17.895Z,47.8
2023-10-09T03:27:34.161Z,48.1
2023-10-09T03:28:50.481Z,47
2023-10-09T03:30:06.738Z,57.5
2023-10-09T03:31:23.072Z,49.9
2023-10-09T03:32:39.366Z,44.9
2023-10-09T03:33:55.667Z,48.1
2023-10-09T03:35:11.910Z,48.9
2023-10-09T03:36:28.242Z,50.5
2023-10-09T03:37:44.543Z,51
2023-10-09T03:38:59.802Z,49.3
2023-10-09T03:40:16.134Z,47.2
2023-10-09T03:41:32.432Z,49.3
2023-10-09T03:42:48.717Z,49.3
2023-10-09T03:44:05.019Z,47
2023-10-09T03:45:21.262Z,54.7
2023-10-09T03:46:37.610Z,48.9
2023-10-09T03:47:53.910Z,56.2
2023-10-09T03:49:10.189Z,48.3
2023-10-09T03:50:26.497Z,49.3
2023-10-09T03:51:42.782Z,50.1
2023-10-09T03:52:59.075Z,49.4
2023-10-09T03:54:15.377Z,47.8
2023-10-09T03:55:30.677Z,53
2023-10-09T03:56:46.967Z,46.5
2023-10-09T03:58:03.222Z,54.3
2023-10-09T03:59:19.552Z,49.6
2023-10-09T04:00:35.850Z,47.2
2023-10-09T04:01:52.142Z,45.9
2023-10-09T04:03:08.437Z,57.5
2023-10-09T04:04:24.734Z,49.6
2023-10-09T04:05:40.980Z,48.9
2023-10-09T04:06:57.309Z,54.7
2023-10-09T04:08:13.603Z,49.7
2023-10-09T04:09:29.906Z,49.3
2023-10-09T04:10:46.203Z,48.6
2023-10-09T04:12:01.516Z,48
2023-10-09T04:13:17.800Z,47.5
2023-10-09T04:14:34.091Z,46
2023-10-09T04:15:50.396Z,51.7
2023-10-09T04:17:06.673Z,49.9
2023-10-09T04:18:22.967Z,47.6
2023-10-09T04:19:39.273Z,55.5
2023-10-09T04:20:55.517Z,47.6
2023-10-09T04:22:11.857Z,50.1
2023-10-09T04:23:28.139Z,48.6
2023-10-09T04:24:44.445Z,51.8
2023-10-09T04:26:00.735Z,50.1
2023-10-09T04:27:17.023Z,52.3
2023-10-09T04:28:32.345Z,47.6
2023-10-09T04:29:48.624Z,56.2
2023-10-09T04:31:04.920Z,59.9
2023-10-09T04:32:21.218Z,65.2
2023-10-09T04:33:37.503Z,49.7
2023-10-09T04:34:53.808Z,52
2023-10-09T04:36:10.100Z,51.2
2023-10-09T04:37:26.387Z,48
2023-10-09T04:38:42.670Z,47
2023-10-09T04:39:58.968Z,47.8
2023-10-09T04:41:15.266Z,48
2023-10-09T04:42:31.552Z,50.9
2023-10-09T04:43:47.844Z,48.5
2023-10-09T04:45:03.155Z,59.6
2023-10-09T04:46:19.448Z,49.7
2023-10-09T04:47:35.753Z,49.1
2023-10-09T04:48:52.046Z,51.8
2023-10-09T04:50:08.345Z,50.2
2023-10-09T04:51:24.628Z,49.7
2023-10-09T04:52:40.921Z,56.7
2023-10-09T04:53:57.225Z,48
2023-10-09T04:55:13.518Z,51.2
2023-10-09T04:56:29.798Z,56.2
2023-10-09T04:57:46.094Z,55.5
2023-10-09T04:59:02.379Z,52.5
2023-10-09T05:00:18.674Z,57.6
2023-10-09T05:01:35.040Z,47.3
2023-10-09T05:02:51.287Z,50.1
2023-10-09T05:04:07.521Z,53
2023-10-09T05:05:23.714Z,50.7
2023-10-09T05:06:40.005Z,49.7
2023-10-09T05:07:56.250Z,56.5
2023-10-09T05:09:12.483Z,48.1
2023-10-09T05:10:28.728Z,52.3
2023-10-09T05:11:44.950Z,49.9
2023-10-09T05:13:01.198Z,52.2
2023-10-09T05:14:17.391Z,56.7
2023-10-09T05:15:33.675Z,56.8
2023-10-09T05:16:49.916Z,48.5
2023-10-09T05:18:05.162Z,50.5
2023-10-09T05:19:21.406Z,56.8
2023-10-09T05:20:37.659Z,56
2023-10-09T05:21:53.843Z,50.5
2023-10-09T05:23:10.072Z,51.8
2023-10-09T05:24:26.358Z,51.2
2023-10-09T05:25:42.600Z,56.7
2023-10-09T05:26:58.836Z,55.4
2023-10-09T05:28:15.090Z,49.3
2023-10-09T05:29:31.322Z,52.2
2023-10-09T05:30:47.565Z,52.3
2023-10-09T05:32:03.792Z,49.9
2023-10-09T05:33:20.037Z,53
2023-10-09T05:34:35.290Z,51.8
2023-10-09T05:35:51.527Z,50.9
2023-10-09T05:37:07.776Z,53.8
2023-10-09T05:39:40.255Z,51.7
2023-10-09T05:40:56.485Z,53.9
2023-10-09T05:42:12.736Z,53.1
2023-10-09T05:43:28.967Z,53.1
2023-10-09T05:44:45.207Z,52.5
2023-10-09T05:46:01.461Z,55.5
2023-10-09T05:47:17.641Z,51.8
2023-10-09T05:48:33.934Z,54.1
2023-10-09T05:49:50.168Z,54.1
2023-10-09T05:51:05.428Z,50.2
2023-10-09T05:52:21.669Z,52.3
2023-10-09T05:53:37.913Z,55.2
2023-10-09T05:54:54.144Z,51.7
2023-10-09T05:56:10.387Z,55.1
2023-10-09T05:57:26.615Z,53.4
2023-10-09T05:58:42.857Z,53.1
2023-10-09T05:59:59.108Z,54.6
2023-10-09T06:01:15.288Z,53.1
2023-10-09T06:02:31.571Z,50.9
2023-10-09T06:03:47.814Z,52.3
2023-10-09T06:05:04.059Z,56.2
2023-10-09T06:06:20.247Z,54.1
2023-10-09T06:07:36.671Z,53.8
2023-10-09T06:08:52.909Z,56.7
2023-10-09T06:10:09.143Z,51.5
2023-10-09T06:11:25.386Z,52.3
2023-10-09T06:12:41.625Z,49.7
2023-10-09T06:13:57.813Z,52.3
2023-10-09T06:15:14.041Z,55.5
2023-10-09T06:16:30.332Z,49.6
2023-10-09T06:17:46.572Z,52
2023-10-09T06:19:02.811Z,54.7
2023-10-09T06:20:19.050Z,54.6
2023-10-09T06:21:35.297Z,51.4
2023-10-09T06:22:51.525Z,51.2
2023-10-09T06:24:07.767Z,51.7
2023-10-09T06:25:23.027Z,51.7
2023-10-09T06:26:39.218Z,53.6
2023-10-09T06:27:55.495Z,60.9
2023-10-09T06:29:11.691Z,53.6
2023-10-09T06:30:27.977Z,57.3
2023-10-09T06:31:44.362Z,64.2
2023-10-09T06:33:00.545Z,62.6
2023-10-09T06:34:16.840Z,65.5
2023-10-09T06:35:33.010Z,66.2
2023-10-09T06:36:49.317Z,60.2
2023-10-09T06:38:05.493Z,55.1
2023-10-09T06:39:21.794Z,53.6
2023-10-09T06:40:37.968Z,53.9
2023-10-09T06:41:54.263Z,56.3
2023-10-09T06:43:10.510Z,55.2
2023-10-09T06:44:26.748Z,52
2023-10-09T06:45:42.992Z,60.1
2023-10-09T06:46:59.176Z,54.9
2023-10-09T06:48:14.428Z,51
2023-10-09T06:49:30.712Z,55.2
2023-10-09T06:50:46.911Z,56.5
2023-10-09T06:52:03.189Z,55.9
2023-10-09T06:53:19.440Z,52.5
2023-10-09T06:54:35.682Z,52.8
2023-10-09T06:55:51.925Z,59.2
2023-10-09T06:57:08.108Z,55.5
2023-10-09T06:58:24.402Z,60.9
2023-10-09T06:59:40.636Z,58.6
2023-10-09T07:00:56.865Z,61.3
2023-10-09T07:02:13.107Z,63.4
2023-10-09T07:03:29.346Z,53.6
2023-10-09T07:04:44.613Z,54.4
2023-10-09T07:06:00.798Z,68.3
2023-10-09T07:07:17.088Z,57.3
2023-10-09T07:08:33.318Z,55.1
2023-10-09T07:09:49.556Z,57.5
2023-10-09T07:11:05.797Z,53.9
2023-10-09T07:12:21.986Z,52.6
2023-10-09T07:13:38.283Z,50.2
2023-10-09T07:14:54.519Z,49.9
2023-10-09T07:16:10.709Z,52.8
2023-10-09T07:17:27.006Z,53.6
2023-10-09T07:18:43.250Z,52
2023-10-09T07:19:59.490Z,55.9
2023-10-09T07:21:14.737Z,59.4
2023-10-09T07:22:30.917Z,52.8
2023-10-09T07:23:47.164Z,52.3
2023-10-09T07:25:03.444Z,61.8
2023-10-09T07:26:19.635Z,57
2023-10-09T07:27:35.939Z,55.7
2023-10-09T07:28:52.129Z,55.4
2023-10-09T07:30:08.367Z,55.2
2023-10-09T07:31:24.609Z,56.3
2023-10-09T07:32:40.860Z,54.9
2023-10-09T07:33:57.094Z,57
2023-10-09T07:35:13.324Z,51.8
2023-10-09T07:36:29.566Z,57.3
2023-10-09T07:37:44.833Z,58.1
2023-10-09T07:39:01.072Z,54.9
2023-10-09T07:40:17.280Z,56
2023-10-09T07:41:33.536Z,55.5
2023-10-09T07:42:49.772Z,53
2023-10-09T07:44:06.035Z,57.6
2023-10-09T07:45:22.272Z,51.7
2023-10-09T07:46:38.511Z,54.4
2023-10-09T07:47:54.728Z,54.7
2023-10-09T07:49:10.990Z,58
2023-10-09T07:50:27.215Z,57
2023-10-09T07:51:43.445Z,55.9
2023-10-09T07:52:59.693Z,57.6
2023-10-09T07:54:16.056Z,54.4
2023-10-09T07:55:32.309Z,58.4
2023-10-09T07:56:48.549Z,56.2
2023-10-09T07:58:04.786Z,54.3
2023-10-09T07:59:21.021Z,60.4
2023-10-09T08:00:37.259Z,59.1
2023-10-09T08:01:53.503Z,58
2023-10-09T08:03:09.731Z,54.7
2023-10-09T08:04:25.971Z,52.3
2023-10-09T08:05:42.215Z,52.3
2023-10-09T08:06:58.457Z,59.9
2023-10-09T08:08:14.695Z,52
2023-10-09T08:09:30.930Z,57
2023-10-09T08:10:46.199Z,58
2023-10-09T08:12:02.428Z,59.4
2023-10-09T08:13:18.667Z,59.1
2023-10-09T08:14:34.917Z,55.2
2023-10-09T08:15:51.148Z,56.8
2023-10-09T08:17:07.384Z,54.9
2023-10-09T08:18:23.628Z,58.6
2023-10-09T08:19:39.853Z,57.8
2023-10-09T08:20:56.113Z,63.1
2023-10-09T08:22:12.337Z,58.8
2023-10-09T08:23:28.578Z,57.5
2023-10-09T08:24:44.814Z,58
2023-10-09T08:26:01.058Z,54.4
2023-10-09T08:27:16.313Z,52.3
2023-10-09T08:28:32.554Z,55.4
2023-10-09T08:29:48.794Z,55.9
2023-10-09T08:31:05.029Z,56.2
2023-10-09T08:32:21.282Z,60.4
2023-10-09T08:33:37.525Z,60.5
2023-10-09T08:34:53.746Z,54.3
2023-10-09T08:36:09.983Z,53.6
2023-10-09T08:37:26.243Z,55.7
2023-10-09T08:38:42.469Z,58.1
2023-10-09T08:39:58.716Z,56
2023-10-09T08:41:14.949Z,62.3
2023-10-09T08:42:31.184Z,55.7
2023-10-09T08:43:46.446Z,59.6
2023-10-09T08:45:02.676Z,58.9
2023-10-09T08:46:18.920Z,58.8
2023-10-09T08:47:35.166Z,58.6
2023-10-09T08:48:51.411Z,60.5
2023-10-09T08:50:07.631Z,61.3
2023-10-09T08:51:23.873Z,59.4
2023-10-09T08:52:40.118Z,59.6
2023-10-09T08:53:56.369Z,58.4
2023-10-09T08:55:12.608Z,57
2023-10-09T08:56:28.830Z,61.2
2023-10-09T08:57:45.069Z,60.1
2023-10-09T08:59:01.308Z,58.9
2023-10-09T09:00:17.667Z,59.1
2023-10-09T09:01:33.909Z,54.7
2023-10-09T09:02:50.161Z,54.6
2023-10-09T09:04:06.396Z,54.4
2023-10-09T09:05:22.629Z,53.3
2023-10-09T09:06:38.888Z,56.2
2023-10-09T09:07:55.114Z,53.3
2023-10-09T09:09:11.354Z,54.4
2023-10-09T09:10:27.586Z,56.3
2023-10-09T09:11:43.844Z,56
2023-10-09T09:13:00.074Z,56.5
2023-10-09T09:14:16.308Z,56.2
2023-10-09T09:15:32.552Z,58.3
2023-10-09T09:16:47.817Z,64.2
2023-10-09T09:18:04.045Z,65.5
2023-10-09T09:19:20.298Z,59.4
2023-10-09T09:20:36.526Z,56.3
2023-10-09T09:21:52.755Z,62.6
2023-10-09T09:23:09.002Z,62
2023-10-09T09:24:25.246Z,62.6
2023-10-09T09:25:41.489Z,60.2
2023-10-09T09:26:57.726Z,62
2023-10-09T09:28:13.959Z,64.1
2023-10-09T09:29:30.211Z,57
2023-10-09T09:30:46.450Z,59.2
2023-10-09T09:32:02.673Z,62.3
2023-10-09T09:33:17.930Z,59.4
2023-10-09T09:34:34.172Z,56.5
2023-10-09T09:35:50.408Z,58.1
2023-10-09T09:37:06.649Z,53.6
2023-10-09T09:38:22.889Z,52.2
2023-10-09T09:39:39.127Z,55.5
2023-10-09T09:40:55.383Z,62.1
2023-10-09T09:42:11.606Z,53.3
2023-10-09T09:43:27.847Z,49.7
2023-10-09T09:44:44.085Z,50.5
2023-10-09T09:46:00.322Z,54.3
2023-10-09T09:47:16.577Z,49.7
2023-10-09T09:48:32.807Z,54.9
2023-10-09T09:49:48.056Z,60.1
2023-10-09T09:51:04.303Z,59.6
2023-10-09T09:52:20.545Z,54.4
2023-10-09T09:53:36.780Z,47.8
2023-10-09T09:54:53.024Z,47.3
2023-10-09T09:56:09.253Z,49.3
2023-10-09T09:57:25.494Z,53.1
2023-10-09T09:58:41.735Z,52.3
2023-10-09T09:59:57.974Z,53.1
2023-10-09T10:01:14.214Z,55.5
2023-10-09T10:02:30.452Z,53.9
2023-10-09T10:03:46.700Z,52.3
2023-10-09T10:05:02.943Z,51.8
2023-10-09T10:06:19.170Z,53.1
2023-10-09T10:07:34.433Z,51.5
2023-10-09T10:08:50.673Z,56.8
2023-10-09T10:10:06.913Z,53.1
2023-10-09T10:11:23.163Z,52.3
2023-10-09T10:12:39.396Z,53.8
2023-10-09T10:13:55.621Z,52.8
2023-10-09T10:15:11.872Z,51.8
2023-10-09T10:16:28.121Z,52.8
2023-10-09T10:17:44.346Z,52.6
2023-10-09T10:19:00.585Z,51.5
2023-10-09T10:20:16.826Z,51.4
2023-10-09T10:21:33.066Z,56
2023-10-09T10:22:49.322Z,57.3
2023-10-09T10:24:05.666Z,49.7
2023-10-09T10:25:21.908Z,50.2
2023-10-09T10:26:38.145Z,58.4
2023-10-09T10:27:54.403Z,48.9
2023-10-09T10:29:10.637Z,51.8
2023-10-09T10:30:26.866Z,54.4
2023-10-09T10:31:43.121Z,51.4
2023-10-09T10:32:59.356Z,50.2
2023-10-09T10:34:15.598Z,52.2
2023-10-09T10:35:31.826Z,60.5
2023-10-09T10:38:04.303Z,57.8
2023-10-09T10:39:20.545Z,67.6
2023-10-09T10:40:35.803Z,60.4
2023-10-09T10:41:52.054Z,56.5
2023-10-09T10:43:08.289Z,49.1
2023-10-09T10:44:24.533Z,51.5
2023-10-09T10:45:40.773Z,51.5
2023-10-09T10:46:56.031Z,49.1
2023-10-09T10:48:12.266Z,55.4
2023-10-09T10:49:28.503Z,47.5
2023-10-09T10:50:44.729Z,47.2
2023-10-09T10:52:00.974Z,48.6
2023-10-09T10:53:17.223Z,56.7
2023-10-09T10:54:33.449Z,53.3
2023-10-09T10:55:49.703Z,50.7
2023-10-09T10:57:05.938Z,56.2
2023-10-09T10:58:22.170Z,56.2
2023-10-09T10:59:38.411Z,54.3
2023-10-09T11:00:54.646Z,62.1
2023-10-09T11:02:10.897Z,62.8
2023-10-09T11:03:26.143Z,61.5
2023-10-09T11:04:42.398Z,56
2023-10-09T11:05:58.625Z,56
2023-10-09T11:07:14.854Z,52.2
2023-10-09T11:08:31.101Z,52.2
2023-10-09T11:09:47.341Z,52.8
2023-10-09T11:11:03.587Z,56.7
2023-10-09T11:12:19.831Z,57.3
2023-10-09T11:13:36.067Z,50.1
2023-10-09T11:14:52.310Z,55.2
2023-10-09T11:16:08.552Z,50.2
2023-10-09T11:17:24.781Z,57.5
2023-10-09T11:18:41.023Z,53
2023-10-09T11:19:57.390Z,48.9
2023-10-09T11:21:13.635Z,54.4
2023-10-09T11:22:29.879Z,53.4
2023-10-09T11:23:46.107Z,50.5
2023-10-09T11:25:02.352Z,52
2023-10-09T11:26:18.597Z,58
2023-10-09T11:27:34.824Z,49.7
2023-10-09T11:28:51.064Z,52.2
2023-10-09T11:30:07.308Z,54.1
2023-10-09T11:31:23.537Z,58
2023-10-09T11:32:39.783Z,58
2023-10-09T11:33:56.032Z,52
2023-10-09T11:35:12.263Z,53.8
2023-10-09T11:36:27.530Z,60.2
2023-10-09T11:37:43.772Z,61.5
2023-10-09T11:39:00.009Z,57.3
2023-10-09T11:40:16.241Z,59.1
2023-10-09T11:41:32.477Z,61.7
2023-10-09T11:42:48.728Z,64.2
2023-10-09T11:44:04.954Z,59.9
2023-10-09T11:45:21.205Z,63.3
2023-10-09T11:46:37.441Z,68.6
2023-10-09T11:47:53.673Z,64.2
2023-10-09T11:49:09.922Z,63.6
2023-10-09T11:50:26.158Z,60.7
2023-10-09T11:51:42.408Z,63
2023-10-09T11:52:57.658Z,63.9
2023-10-09T11:54:13.900Z,62
2023-10-09T11:55:30.118Z,62.6
2023-10-09T11:56:46.365Z,58.9
2023-10-09T11:58:02.616Z,63.8
2023-10-09T11:59:18.863Z,64.4
2023-10-09T12:00:35.096Z,64.6
2023-10-09T12:01:51.335Z,58.9
2023-10-09T12:03:07.565Z,64.7
2023-10-09T12:04:23.823Z,57.6
2023-10-09T12:05:40.060Z,54.4
2023-10-09T12:06:56.302Z,54.4
2023-10-09T12:08:12.525Z,51.5
2023-10-09T12:09:27.780Z,61.5
2023-10-09T12:10:44.035Z,64.9
2023-10-09T12:12:00.278Z,67
2023-10-09T12:13:16.514Z,66.2
2023-10-09T12:14:32.745Z,64.2
2023-10-09T12:15:48.980Z,56
2023-10-09T12:17:05.231Z,54.9
2023-10-09T12:18:21.463Z,56.7
2023-10-09T12:19:37.716Z,58.4
2023-10-09T12:20:53.938Z,51.8
2023-10-09T12:22:10.192Z,58.4
2023-10-09T12:23:26.421Z,51.5
2023-10-09T12:24:42.669Z,53.8
2023-10-09T12:25:57.918Z,50.7
2023-10-09T12:27:14.165Z,53.1
2023-10-09T12:28:30.391Z,53.4
2023-10-09T12:29:46.634Z,54.4
2023-10-09T12:31:02.870Z,51.8
2023-10-09T12:32:19.117Z,57.2
2023-10-09T12:33:35.360Z,54.6
2023-10-09T12:34:51.598Z,57
2023-10-09T12:36:07.841Z,54.1
2023-10-09T12:37:24.085Z,59.6
2023-10-09T12:38:40.305Z,54.6
2023-10-09T12:39:56.561Z,56.2
2023-10-09T12:41:12.789Z,56
2023-10-09T12:42:28.055Z,53.8
2023-10-09T12:43:44.293Z,55.4
2023-10-09T12:45:00.523Z,56
2023-10-09T12:46:16.759Z,62.1
2023-10-09T12:47:33.005Z,54.1
2023-10-09T12:48:49.245Z,55.9
2023-10-09T12:50:05.478Z,48.8
2023-10-09T12:51:21.727Z,56.3
2023-10-09T12:52:37.965Z,53.3
2023-10-09T12:53:54.202Z,49.4
2023-10-09T12:55:10.439Z,56.8
2023-10-09T12:56:26.690Z,56.3
2023-10-09T12:57:42.929Z,53.3
2023-10-09T12:58:59.283Z,54.6
2023-10-09T13:00:15.526Z,61.5
2023-10-09T13:01:31.759Z,55.2
2023-10-09T13:02:47.995Z,57.5
2023-10-09T13:04:04.237Z,56.8
2023-10-09T13:05:20.476Z,62.3
2023-10-09T13:06:36.721Z,62.1
2023-10-09T13:07:52.964Z,58.9
2023-10-09T13:09:09.207Z,56
2023-10-09T13:10:25.446Z,54.4
2023-10-09T13:11:41.671Z,52.5
2023-10-09T13:12:57.916Z,52.6
2023-10-09T13:14:14.167Z,50.1
2023-10-09T13:15:29.420Z,55.4
2023-10-09T13:16:45.652Z,53.6
2023-10-09T13:18:01.894Z,60.5
2023-10-09T13:19:18.142Z,61.7
2023-10-09T13:20:34.376Z,48
2023-10-09T13:21:50.611Z,53
2023-10-09T13:23:06.852Z,56.3
2023-10-09T13:24:23.079Z,53
2023-10-09T13:25:39.335Z,52.6
2023-10-09T13:26:55.558Z,55.5
2023-10-09T13:28:11.803Z,55.4
2023-10-09T13:29:28.055Z,60.1
2023-10-09T13:30:44.275Z,53.6
2023-10-09T13:31:59.537Z,56.5
2023-10-09T13:33:15.787Z,56.8
2023-10-09T13:34:32.026Z,57
2023-10-09T13:35:48.246Z,54.4
2023-10-09T13:37:04.488Z,52.3
2023-10-09T13:38:20.739Z,52
2023-10-09T13:39:36.983Z,54.1
2023-10-09T13:40:53.217Z,63
2023-10-09T13:42:09.454Z,53
2023-10-09T13:43:25.686Z,54.6
2023-10-09T13:44:41.919Z,59.7
2023-10-09T13:45:58.170Z,55.4
2023-10-09T13:47:14.403Z,57.5
2023-10-09T13:48:29.658Z,51.8
2023-10-09T13:49:45.894Z,53.8
2023-10-09T13:51:02.132Z,54.6
2023-10-09T13:52:18.379Z,54.3
2023-10-09T13:53:34.618Z,58.9
2023-10-09T13:54:50.863Z,52.5
2023-10-09T13:56:07.091Z,60.7
2023-10-09T13:57:23.342Z,53.3
2023-10-09T13:58:39.575Z,53.1
2023-10-09T13:59:55.814Z,54.3
2023-10-09T14:01:12.049Z,55.9
2023-10-09T14:02:28.289Z,57.3
2023-10-09T14:03:44.526Z,63.8
2023-10-09T14:05:00.886Z,61.3
2023-10-09T14:06:17.125Z,58.3
2023-10-09T14:07:33.376Z,56.3
2023-10-09T14:08:49.609Z,56.3
2023-10-09T14:10:05.848Z,56.5
2023-10-09T14:11:22.092Z,54.6
2023-10-09T14:12:38.314Z,54.7
2023-10-09T14:13:54.572Z,60.5
2023-10-09T14:15:10.793Z,63.6
2023-10-09T14:16:27.049Z,65.4
2023-10-09T14:17:43.276Z,59.7
2023-10-09T14:18:59.524Z,61.5
2023-10-09T14:20:15.765Z,63
2023-10-09T14:21:31.022Z,58.4
2023-10-09T14:22:47.255Z,63.3
2023-10-09T14:24:03.497Z,63.3
2023-10-09T14:25:19.727Z,66.3
2023-10-09T14:26:35.982Z,58.8
2023-10-09T14:27:52.216Z,62
2023-10-09T14:29:08.448Z,59.2
2023-10-09T14:30:24.689Z,60.9
2023-10-09T14:31:40.936Z,56.8
2023-10-09T14:32:57.175Z,56.7
2023-10-09T14:34:13.396Z,56.3
2023-10-09T14:35:29.650Z,53.9
2023-10-09T14:36:45.893Z,52.8
2023-10-09T14:38:01.135Z,55.4
2023-10-09T14:39:17.389Z,53.9
2023-10-09T14:40:33.626Z,53.9
2023-10-09T14:41:49.849Z,53.6
2023-10-09T14:43:06.095Z,63
2023-10-09T14:44:22.329Z,63
2023-10-09T14:45:38.557Z,63.3
2023-10-09T14:46:54.814Z,63
2023-10-09T14:48:11.048Z,63.9
2023-10-09T14:49:27.285Z,57.2
2023-10-09T14:50:43.505Z,54.4
2023-10-09T14:51:59.777Z,55.2
2023-10-09T14:53:15.997Z,59.2
2023-10-09T14:54:31.267Z,54.7
2023-10-09T14:55:47.504Z,53.4
2023-10-09T14:57:03.738Z,60.7
2023-10-09T14:58:19.980Z,56
2023-10-09T14:59:36.215Z,56.8
2023-10-09T15:00:52.451Z,55.2
2023-10-09T15:02:07.718Z,60.1
2023-10-09T15:03:23.952Z,57.6
2023-10-09T15:04:40.194Z,54.9
2023-10-09T15:05:56.430Z,53
2023-10-09T15:07:12.684Z,50.5
2023-10-09T15:08:28.907Z,53.4
2023-10-09T15:09:45.150Z,52.3
2023-10-09T15:11:01.382Z,50.7
2023-10-09T15:12:17.622Z,50.2
2023-10-09T15:13:33.879Z,54.3
2023-10-09T15:14:50.116Z,52.2
2023-10-09T15:16:06.336Z,57
2023-10-09T15:17:22.580Z,55.9
2023-10-09T15:18:37.828Z,58
2023-10-09T15:21:10.318Z,61.2
2023-10-09T15:22:26.561Z,60.5
2023-10-09T15:23:42.789Z,61.3
2023-10-09T15:24:59.024Z,63.6
2023-10-09T15:26:15.270Z,59.9
2023-10-09T15:27:31.520Z,54.4
2023-10-09T15:28:47.751Z,55.2
2023-10-09T15:30:03.997Z,58
2023-10-09T15:31:20.223Z,58.3
2023-10-09T15:32:36.477Z,52.3
2023-10-09T15:33:52.710Z,54.1
2023-10-09T15:35:07.955Z,55.5
2023-10-09T15:36:24.195Z,53.6
2023-10-09T15:37:40.447Z,63.6
2023-10-09T15:38:56.672Z,55.4
2023-10-09T15:40:12.925Z,58.3
2023-10-09T15:41:29.132Z,55.9
2023-10-09T15:42:45.396Z,53
2023-10-09T15:44:01.633Z,55.5
2023-10-09T15:45:17.877Z,49.7
2023-10-09T15:46:34.105Z,55.2
2023-10-09T15:47:50.367Z,50.4
2023-10-09T15:49:06.596Z,51.2
2023-10-09T15:50:22.830Z,52.2
2023-10-09T15:51:38.088Z,51.7
2023-10-09T15:52:54.325Z,54.3
2023-10-09T15:54:10.560Z,48.5
2023-10-09T15:55:26.808Z,49.3
2023-10-09T15:56:43.060Z,51.4
2023-10-09T15:57:59.295Z,55.4
2023-10-09T15:59:15.520Z,47.6
2023-10-09T16:00:31.772Z,52.8
2023-10-09T16:01:48.011Z,50.4
2023-10-09T16:03:04.248Z,59.4
2023-10-09T16:04:20.486Z,59.7
2023-10-09T16:05:36.725Z,56.2
2023-10-09T16:06:52.957Z,54.4
2023-10-09T16:08:08.223Z,53.4
2023-10-09T16:09:24.468Z,58.1
2023-10-09T16:10:40.708Z,54.7
2023-10-09T16:11:56.946Z,59.6
2023-10-09T16:13:13.187Z,51.2
2023-10-09T16:14:29.420Z,57.2
2023-10-09T16:15:45.650Z,50.7
2023-10-09T16:17:01.898Z,47.8
2023-10-09T16:18:18.140Z,51.5
2023-10-09T16:19:34.377Z,49.4
2023-10-09T16:20:50.592Z,52.6
2023-10-09T16:22:06.843Z,62.6
2023-10-09T16:23:23.085Z,53.6
2023-10-09T16:24:38.324Z,55.9
2023-10-09T16:25:54.581Z,49.9
2023-10-09T16:27:10.838Z,50.7
2023-10-09T16:28:27.065Z,58.6
2023-10-09T16:29:43.302Z,48
2023-10-09T16:30:59.545Z,47.8
2023-10-09T16:32:15.762Z,51
2023-10-09T16:33:32.023Z,53.4
2023-10-09T16:34:48.246Z,52.3
2023-10-09T16:36:04.515Z,63.3
2023-10-09T16:37:20.743Z,48.1
2023-10-09T16:38:36.986Z,48.9
2023-10-09T16:39:53.217Z,49.7
2023-10-09T16:41:08.491Z,50.4
2023-10-09T16:42:24.729Z,52.3
2023-10-09T16:43:40.957Z,52.5
2023-10-09T16:44:57.209Z,47.8
2023-10-09T16:46:13.431Z,52.5
2023-10-09T16:47:29.675Z,59.1
2023-10-09T16:48:45.924Z,54.9
2023-10-09T16:50:02.148Z,55.7
2023-10-09T16:51:18.402Z,49.9
2023-10-09T16:52:34.636Z,49.1
2023-10-09T16:53:50.934Z,53.8
2023-10-09T16:55:07.226Z,47.2
2023-10-09T16:56:23.521Z,53
2023-10-09T16:57:38.825Z,50.5
2023-10-09T16:58:55.127Z,51.2
2023-10-09T17:00:11.427Z,47.6
2023-10-09T17:01:27.718Z,51.7
2023-10-09T17:02:43.998Z,53.3
2023-10-09T17:04:00.288Z,47.6
2023-10-09T17:05:16.590Z,47.5
2023-10-09T17:06:32.884Z,48.1